createdAt,value
2023-12-09T00:01:41.497Z,73.57
2023-12-09T00:04:13.019Z,73.62
2023-12-09T00:06:51.540Z,73.60
2023-12-09T00:09:23.387Z,73.68
2023-12-09T00:11:54.563Z,73.48
2023-12-09T00:14:25.794Z,73.66
2023-12-09T00:16:57.572Z,73.69
2023-12-09T00:19:28.567Z,73.63
2023-12-09T00:22:00.372Z,73.41
2023-12-09T00:24:31.672Z,73.55
2023-12-09T00:27:02.963Z,73.56
2023-12-09T00:29:33.851Z,73.43
2023-12-09T00:32:05.578Z,73.81
2023-12-09T00:34:38.210Z,73.43
2023-12-09T00:37:09.216Z,73.47
2023-12-09T00:39:40.283Z,73.37
2023-12-09T00:42:11.622Z,73.48
2023-12-09T00:45:10.250Z,73.06
2023-12-09T00:48:02.180Z,73.49
2023-12-09T00:50:33.362Z,73.77
2023-12-09T00:53:04.856Z,73.63
2023-12-09T00:55:36.787Z,73.16
2023-12-09T00:58:07.830Z,73.61
2023-12-09T01:00:38.892Z,73.86
2023-12-09T01:03:19.273Z,73.72
2023-12-09T01:05:50.390Z,73.63
2023-12-09T01:08:21.972Z,73.85
2023-12-09T01:10:54.286Z,73.78
2023-12-09T01:13:25.501Z,73.87
2023-12-09T01:15:56.545Z,74.18
2023-12-09T01:18:27.447Z,74.23
2023-12-09T01:20:58.872Z,74.17
2023-12-09T01:23:29.753Z,73.84
2023-12-09T01:26:00.765Z,74.14
2023-12-09T01:28:39.463Z,74.07
2023-12-09T01:34:18.629Z,74.14
2023-12-09T01:36:49.523Z,74.20
2023-12-09T01:42:46.590Z,73.68
2023-12-09T01:45:37.682Z,74.22
2023-12-09T01:48:09.917Z,73.94
2023-12-09T01:50:41.278Z,74.02
2023-12-09T01:56:30.329Z,74.29
2023-12-09T01:59:01.719Z,73.98
2023-12-09T02:01:48.531Z,73.80
2023-12-09T02:04:23.752Z,73.79
2023-12-09T02:06:54.715Z,74.08
2023-12-09T02:09:26.181Z,74.18
2023-12-09T02:12:08.806Z,74.07
2023-12-09T02:14:46.967Z,74.26
2023-12-09T02:17:30.842Z,74.10
2023-12-09T02:20:06.805Z,74.25
2023-12-09T02:22:40.705Z,74.15
2023-12-09T02:25:12.866Z,73.94
2023-12-09T02:27:51.260Z,73.83
2023-12-09T02:30:59.977Z,73.89
2023-12-09T02:37:01.540Z,73.58
2023-12-09T02:39:32.955Z,74.20
2023-12-09T02:42:13.783Z,74.32
2023-12-09T02:44:45.884Z,74.44
2023-12-09T02:47:17.436Z,74.32
2023-12-09T02:49:49.213Z,74.34
2023-12-09T02:52:20.623Z,74.34
2023-12-09T02:55:01.186Z,74.58
2023-12-09T02:57:39.587Z,74.38
2023-12-09T03:00:13.804Z,74.26
2023-12-09T03:02:50.887Z,74.08
2023-12-09T03:05:28.149Z,74.20
2023-12-09T03:07:59.214Z,74.22
2023-12-09T03:10:55.266Z,74.40
2023-12-09T03:13:31.374Z,74.27
2023-12-09T03:16:06.544Z,74.42
2023-12-09T03:22:07.299Z,73.97
2023-12-09T03:24:38.347Z,74.49
2023-12-09T03:27:09.741Z,74.30
2023-12-09T03:29:41.645Z,74.35
2023-12-09T03:32:12.900Z,74.32
2023-12-09T03:34:45.215Z,74.61
2023-12-09T03:37:16.658Z,74.78
2023-12-09T03:39:47.921Z,75.00
2023-12-09T03:42:19.868Z,74.83
2023-12-09T03:44:50.873Z,74.68
2023-12-09T03:47:29.009Z,75.26
2023-12-09T03:50:05.177Z,74.94
2023-12-09T03:52:36.762Z,74.87
2023-12-09T03:55:08.603Z,74.48
2023-12-09T03:57:39.478Z,74.86
2023-12-09T04:00:14.541Z,74.70
2023-12-09T04:02:45.808Z,74.80
2023-12-09T04:05:16.771Z,74.86
2023-12-09T04:07:47.695Z,74.96
2023-12-09T04:10:18.868Z,75.02
2023-12-09T04:12:50.253Z,74.65
2023-12-09T04:15:21.291Z,74.79
2023-12-09T04:17:52.345Z,74.84
2023-12-09T04:20:24.787Z,75.02
2023-12-09T04:22:56.123Z,75.05
2023-12-09T04:25:27.456Z,75.02
2023-12-09T04:27:58.658Z,74.92
2023-12-09T04:30:29.488Z,75.06
2023-12-09T04:33:05.213Z,74.87
2023-12-09T04:35:36.387Z,74.80
2023-12-09T04:38:07.253Z,74.66
2023-12-09T04:40:39.604Z,74.52
2023-12-09T04:43:11.037Z,74.56
2023-12-09T04:45:42.039Z,74.67
2023-12-09T04:48:13.698Z,74.61
2023-12-09T04:50:44.853Z,74.64
2023-12-09T04:53:16.062Z,74.60
2023-12-09T04:55:47.133Z,74.68
2023-12-09T04:58:18.230Z,74.83
2023-12-09T05:00:49.070Z,74.80
2023-12-09T05:03:24.111Z,74.79
2023-12-09T05:05:53.855Z,74.77
2023-12-09T05:08:25.588Z,74.82
2023-12-09T05:10:56.349Z,74.92
2023-12-09T05:13:28.172Z,74.93
2023-12-09T05:15:59.371Z,75.07
2023-12-09T05:18:31.422Z,75.13
2023-12-09T05:21:02.579Z,75.28
2023-12-09T05:23:34.568Z,75.08
2023-12-09T05:26:06.611Z,75.23
2023-12-09T05:28:37.858Z,75.35
2023-12-09T05:31:09.421Z,75.48
2023-12-09T05:33:42.160Z,75.32
2023-12-09T05:36:13.700Z,75.53
2023-12-09T05:38:45.716Z,75.23
2023-12-09T05:41:16.798Z,75.46
2023-12-09T05:43:47.693Z,75.68
2023-12-09T05:46:22.648Z,75.50
2023-12-09T05:48:54.355Z,75.16
2023-12-09T05:51:25.540Z,75.34
2023-12-09T05:53:56.602Z,75.29
2023-12-09T05:56:28.379Z,75.27
2023-12-09T05:58:59.535Z,75.01
2023-12-09T06:01:32.106Z,74.97
2023-12-09T06:04:03.080Z,75.12
2023-12-09T06:06:34.433Z,75.21
2023-12-09T06:09:06.233Z,75.12
2023-12-09T06:11:37.282Z,75.32
2023-12-09T06:14:09.497Z,75.18
2023-12-09T06:16:40.461Z,75.22
2023-12-09T06:19:11.396Z,75.24
2023-12-09T06:21:42.392Z,75.22
2023-12-09T06:24:16.558Z,75.53
2023-12-09T06:29:53.438Z,75.67
2023-12-09T06:32:28.668Z,75.72
2023-12-09T06:34:59.961Z,75.71
2023-12-09T06:37:31.263Z,75.49
2023-12-09T06:40:02.167Z,75.71
2023-12-09T06:42:49.124Z,75.57
2023-12-09T06:45:20.889Z,75.61
2023-12-09T06:47:55.277Z,75.33
2023-12-09T06:50:27.186Z,75.51
2023-12-09T06:52:59.568Z,75.90
2023-12-09T06:55:34.067Z,75.85
2023-12-09T06:58:09.555Z,75.79
2023-12-09T07:00:41.205Z,75.81
2023-12-09T07:03:13.472Z,75.99
2023-12-09T07:05:44.672Z,75.99
2023-12-09T07:08:15.722Z,75.93
2023-12-09T07:10:48.605Z,75.88
2023-12-09T07:13:20.337Z,76.23
2023-12-09T07:15:52.747Z,75.90
2023-12-09T07:18:25.823Z,75.84
2023-12-09T07:20:57.426Z,76.04
2023-12-09T07:23:28.204Z,75.86
2023-12-09T07:25:58.979Z,76.20
2023-12-09T07:28:30.984Z,76.34
2023-12-09T07:31:04.721Z,76.12
2023-12-09T07:33:35.978Z,75.95
2023-12-09T07:36:08.236Z,75.85
2023-12-09T07:38:39.428Z,76.14
2023-12-09T07:41:10.536Z,76.16
2023-12-09T07:43:41.952Z,76.49
2023-12-09T07:46:12.854Z,76.32
2023-12-09T07:48:43.804Z,76.32
2023-12-09T07:51:15.448Z,76.04
2023-12-09T07:53:49.628Z,76.24
2023-12-09T07:56:21.186Z,76.44
2023-12-09T07:58:52.876Z,76.53
2023-12-09T08:01:24.614Z,76.52
2023-12-09T08:03:56.003Z,76.48
2023-12-09T08:06:26.938Z,76.38
2023-12-09T08:08:58.681Z,76.57
2023-12-09T08:11:29.583Z,76.16
2023-12-09T08:14:00.834Z,75.76
2023-12-09T08:16:31.848Z,76.02
2023-12-09T08:19:02.759Z,76.07
2023-12-09T08:21:38.935Z,76.15
2023-12-09T08:24:12.360Z,76.26
2023-12-09T08:26:46.029Z,76.32
2023-12-09T08:29:17.512Z,76.56
2023-12-09T08:31:50.710Z,76.45
2023-12-09T08:34:27.875Z,76.43
2023-12-09T08:36:59.873Z,76.39
2023-12-09T08:39:31.885Z,76.30
2023-12-09T08:42:02.712Z,76.38
2023-12-09T08:44:34.448Z,76.35
2023-12-09T08:47:05.410Z,76.22
2023-12-09T08:49:36.670Z,76.25
2023-12-09T08:52:08.304Z,76.09
2023-12-09T08:54:39.613Z,76.25
2023-12-09T08:57:12.147Z,76.22
2023-12-09T08:59:43.120Z,76.21
2023-12-09T09:02:14.056Z,76.28
2023-12-09T09:04:45.156Z,76.30
2023-12-09T09:07:16.340Z,76.35
2023-12-09T09:09:47.151Z,76.18
2023-12-09T09:12:26.729Z,76.30
2023-12-09T09:14:57.865Z,76.37
2023-12-09T09:17:30.212Z,76.15
2023-12-09T09:20:01.126Z,76.18
2023-12-09T09:22:31.965Z,76.21
2023-12-09T09:25:05.614Z,76.17
2023-12-09T09:27:39.880Z,76.49
2023-12-09T09:30:12.557Z,76.26
2023-12-09T09:32:44.115Z,76.39
2023-12-09T09:38:49.903Z,76.21
2023-12-09T09:41:30.514Z,75.98
2023-12-09T09:44:12.784Z,76.21
2023-12-09T09:46:47.512Z,75.85
2023-12-09T09:49:22.170Z,76.20
2023-12-09T09:51:59.344Z,76.18
2023-12-09T09:54:34.391Z,76.06
2023-12-09T09:57:09.595Z,76.31
2023-12-09T09:59:41.781Z,75.91
2023-12-09T10:02:14.567Z,75.82
2023-12-09T10:04:46.343Z,75.65
2023-12-09T10:07:21.383Z,75.83
2023-12-09T10:09:52.924Z,76.20
2023-12-09T10:12:23.685Z,76.06
2023-12-09T10:18:58.275Z,75.93
2023-12-09T10:21:29.264Z,75.87
2023-12-09T10:24:00.228Z,75.64
2023-12-09T10:26:35.683Z,75.75
2023-12-09T10:29:11.025Z,75.61
2023-12-09T10:31:42.639Z,75.70
2023-12-09T10:34:30.022Z,75.74
2023-12-09T10:37:01.554Z,75.71
2023-12-09T10:39:40.742Z,75.65
2023-12-09T10:42:12.661Z,75.85
2023-12-09T10:44:43.739Z,75.71
2023-12-09T10:47:15.016Z,75.79
2023-12-09T10:49:46.142Z,75.67
2023-12-09T10:52:17.270Z,75.56
2023-12-09T10:54:53.077Z,75.75
2023-12-09T10:57:25.056Z,75.67
2023-12-09T11:00:01.796Z,75.56
2023-12-09T11:02:41.666Z,75.50
2023-12-09T11:05:14.438Z,75.53
2023-12-09T11:07:51.578Z,75.69
2023-12-09T11:10:23.750Z,75.68
2023-12-09T11:12:54.598Z,75.62
2023-12-09T11:15:33.778Z,75.75
2023-12-09T11:18:12.806Z,75.71
2023-12-09T11:20:47.672Z,75.84
2023-12-09T11:23:18.485Z,75.79
2023-12-09T11:25:52.338Z,75.72
2023-12-09T11:28:25.844Z,75.60
2023-12-09T11:30:59.569Z,75.65
2023-12-09T11:33:31.087Z,75.63
2023-12-09T11:36:18.571Z,75.83
2023-12-09T11:38:50.643Z,75.68
2023-12-09T11:41:22.378Z,75.73
2023-12-09T11:43:55.524Z,75.82
2023-12-09T11:46:28.166Z,75.81
2023-12-09T11:49:04.346Z,75.69
2023-12-09T11:51:36.776Z,75.63
2023-12-09T11:54:09.547Z,75.49
2023-12-09T11:56:43.536Z,75.63
2023-12-09T11:59:14.647Z,75.37
2023-12-09T12:01:47.092Z,75.28
2023-12-09T12:04:18.726Z,75.47
2023-12-09T12:06:49.993Z,75.26
2023-12-09T12:09:25.310Z,75.17
2023-12-09T12:11:56.704Z,75.28
2023-12-09T12:14:28.825Z,75.32
2023-12-09T12:17:01.640Z,75.11
2023-12-09T12:19:37.307Z,75.14
2023-12-09T12:22:09.114Z,75.27
2023-12-09T12:24:56.055Z,75.31
2023-12-09T12:27:27.512Z,75.18
2023-12-09T12:29:58.782Z,75.15
2023-12-09T12:32:30.406Z,75.27
2023-12-09T12:35:04.649Z,75.52
2023-12-09T12:37:35.872Z,75.75
2023-12-09T12:40:08.859Z,75.44
2023-12-09T12:42:43.781Z,75.44
2023-12-09T12:45:24.087Z,75.48
2023-12-09T12:47:56.648Z,75.53
2023-12-09T12:50:28.040Z,75.79
2023-12-09T12:53:00.041Z,75.75
2023-12-09T12:55:33.804Z,75.75
2023-12-09T12:58:05.195Z,75.87
2023-12-09T13:00:36.299Z,75.84
2023-12-09T13:03:08.758Z,75.98
2023-12-09T13:05:39.801Z,75.88
2023-12-09T13:08:13.558Z,75.99
2023-12-09T13:10:44.803Z,76.07
2023-12-09T13:13:15.645Z,76.01
2023-12-09T13:15:46.765Z,76.06
2023-12-09T13:18:21.345Z,76.01
2023-12-09T13:20:54.490Z,76.11
2023-12-09T13:23:27.238Z,76.00
2023-12-09T13:26:01.302Z,76.12
2023-12-09T13:28:32.617Z,75.84
2023-12-09T13:31:04.016Z,75.81
2023-12-09T13:33:35.269Z,75.92
2023-12-09T13:36:13.573Z,76.01
2023-12-09T13:38:45.733Z,75.92
2023-12-09T13:41:16.763Z,75.94
2023-12-09T13:43:49.940Z,76.20
2023-12-09T13:46:20.797Z,76.12
2023-12-09T13:48:51.823Z,76.07
2023-12-09T13:51:24.259Z,75.85
2023-12-09T13:53:58.988Z,75.85
2023-12-09T13:56:29.888Z,75.85
2023-12-09T13:59:09.016Z,75.89
2023-12-09T14:01:42.632Z,75.73
2023-12-09T14:04:14.180Z,75.85
2023-12-09T14:06:45.540Z,75.64
2023-12-09T14:09:17.315Z,75.56
2023-12-09T14:11:49.476Z,75.71
2023-12-09T14:14:21.443Z,75.60
2023-12-09T14:16:52.411Z,75.61
2023-12-09T14:19:35.243Z,75.65
2023-12-09T14:22:06.916Z,76.02
2023-12-09T14:24:38.110Z,75.92
2023-12-09T14:27:18.263Z,75.86
2023-12-09T14:30:07.441Z,75.99
2023-12-09T14:32:51.069Z,75.91
2023-12-09T14:35:22.225Z,75.88
2023-12-09T14:37:57.006Z,75.83
2023-12-09T14:40:27.885Z,75.67
2023-12-09T14:42:58.692Z,75.93
2023-12-09T14:45:32.515Z,75.87
2023-12-09T14:48:07.746Z,75.79
2023-12-09T14:50:39.234Z,76.05
2023-12-09T14:53:12.818Z,75.69
2023-12-09T14:55:44.076Z,75.88
2023-12-09T14:58:15.443Z,75.92
2023-12-09T15:00:50.899Z,75.85
2023-12-09T15:03:22.929Z,75.88
2023-12-09T15:05:54.135Z,75.92
2023-12-09T15:08:25.340Z,75.85
2023-12-09T15:10:56.263Z,75.76
2023-12-09T15:13:35.283Z,75.72
2023-12-09T15:16:06.755Z,75.61
2023-12-09T15:18:38.948Z,75.78
2023-12-09T15:21:10.345Z,75.93
2023-12-09T15:23:41.365Z,75.84
2023-12-09T15:26:14.964Z,75.75
2023-12-09T15:28:48.712Z,75.74
2023-12-09T15:31:19.488Z,75.72
2023-12-09T15:33:53.455Z,75.74
2023-12-09T15:36:24.955Z,75.90
2023-12-09T15:38:55.887Z,75.94
2023-12-09T15:41:29.089Z,75.95
2023-12-09T15:44:00.187Z,75.90
2023-12-09T15:46:42.861Z,75.76
2023-12-09T15:49:14.173Z,75.82
2023-12-09T15:51:45.235Z,75.72
2023-12-09T15:54:17.773Z,76.00
2023-12-09T15:56:48.796Z,75.96
2023-12-09T15:59:22.491Z,76.08
2023-12-09T16:01:56.050Z,76.10
2023-12-09T16:04:30.833Z,76.16
2023-12-09T16:07:03.289Z,76.22
2023-12-09T16:09:41.053Z,76.39
2023-12-09T16:12:18.465Z,76.17
2023-12-09T16:14:53.919Z,76.36
2023-12-09T16:17:25.243Z,76.41
2023-12-09T16:19:56.182Z,76.44
2023-12-09T16:22:27.282Z,76.41
2023-12-09T16:24:59.131Z,76.42
2023-12-09T16:27:30.210Z,76.58
2023-12-09T16:30:01.843Z,76.63
2023-12-09T16:32:32.820Z,76.84
2023-12-09T16:35:07.864Z,76.90
2023-12-09T16:37:39.718Z,76.83
2023-12-09T16:40:14.870Z,76.80
2023-12-09T16:42:44.867Z,76.76
2023-12-09T16:45:15.990Z,76.87
2023-12-09T16:47:50.379Z,76.72
2023-12-09T16:50:25.877Z,76.59
2023-12-09T16:52:59.897Z,76.73
2023-12-09T16:55:34.263Z,76.63
2023-12-09T16:58:05.336Z,76.64
2023-12-09T17:00:36.346Z,76.56
2023-12-09T17:03:16.220Z,76.75
2023-12-09T17:05:54.860Z,76.51
2023-12-09T17:08:32.815Z,76.56
2023-12-09T17:11:03.870Z,76.69
2023-12-09T17:13:34.869Z,76.79
2023-12-09T17:16:06.135Z,76.61
2023-12-09T17:18:38.110Z,76.68
2023-12-09T17:21:12.385Z,76.73
2023-12-09T17:23:46.585Z,76.72
2023-12-09T17:26:18.481Z,76.76
2023-12-09T17:29:12.515Z,76.80
2023-12-09T17:31:48.482Z,76.87
2023-12-09T17:34:20.264Z,76.91
2023-12-09T17:36:52.060Z,76.87
2023-12-09T17:39:22.989Z,76.84
2023-12-09T17:41:59.997Z,76.70
2023-12-09T17:44:30.880Z,76.84
2023-12-09T17:47:02.853Z,76.88
2023-12-09T17:49:34.123Z,76.98
2023-12-09T17:52:06.013Z,76.93
2023-12-09T17:54:39.552Z,76.98
2023-12-09T17:57:10.999Z,77.08
2023-12-09T17:59:43.253Z,77.26
2023-12-09T18:02:14.957Z,77.10
2023-12-09T18:04:46.634Z,77.21
2023-12-09T18:07:20.626Z,77.02
2023-12-09T18:09:52.124Z,76.83
2023-12-09T18:12:23.280Z,76.79
2023-12-09T18:14:54.073Z,76.72
2023-12-09T18:17:26.950Z,76.69
2023-12-09T18:20:02.018Z,76.71
2023-12-09T18:22:33.218Z,76.58
2023-12-09T18:25:04.192Z,76.61
2023-12-09T18:27:36.400Z,76.60
2023-12-09T18:30:11.440Z,76.83
2023-12-09T18:32:43.810Z,76.80
2023-12-09T18:35:15.295Z,76.84
2023-12-09T18:37:47.004Z,76.66
2023-12-09T18:40:24.499Z,76.91
2023-12-09T18:42:57.248Z,76.75
2023-12-09T18:45:29.685Z,76.76
2023-12-09T18:48:03.770Z,76.80
2023-12-09T18:50:43.366Z,76.49
2023-12-09T18:53:15.506Z,76.69
2023-12-09T18:55:46.276Z,76.55
2023-12-09T18:58:17.255Z,76.49
2023-12-09T19:00:58.831Z,76.48
2023-12-09T19:03:47.120Z,76.51
2023-12-09T19:06:18.806Z,76.54
2023-12-09T19:08:49.855Z,76.59
2023-12-09T19:11:21.472Z,76.59
2023-12-09T19:13:52.270Z,76.52
2023-12-09T19:16:23.211Z,76.62
2023-12-09T19:18:58.534Z,76.65
2023-12-09T19:21:29.848Z,76.61
2023-12-09T19:24:03.407Z,76.77
2023-12-09T19:26:34.507Z,76.71
2023-12-09T19:29:05.891Z,76.55
2023-12-09T19:31:38.698Z,76.67
2023-12-09T19:34:13.615Z,76.69
2023-12-09T19:36:47.671Z,76.82
2023-12-09T19:39:25.719Z,76.77
2023-12-09T19:41:57.371Z,76.70
2023-12-09T19:45:04.001Z,76.79
2023-12-09T19:47:36.816Z,76.75
2023-12-09T19:50:09.517Z,76.73
2023-12-09T19:52:40.280Z,76.64
2023-12-09T19:55:12.324Z,76.42
2023-12-09T19:57:43.667Z,76.57
2023-12-09T20:00:16.773Z,76.63
2023-12-09T20:02:48.166Z,76.63
2023-12-09T20:05:20.186Z,76.51
2023-12-09T20:07:51.392Z,76.60
2023-12-09T20:10:23.198Z,76.74
2023-12-09T20:12:54.538Z,76.74
2023-12-09T20:15:30.105Z,76.84
2023-12-09T20:18:01.645Z,76.80
2023-12-09T20:20:32.640Z,76.68
2023-12-09T20:23:04.088Z,76.93
2023-12-09T20:25:35.965Z,76.88
2023-12-09T20:28:07.953Z,77.00
2023-12-09T20:30:40.223Z,76.87
2023-12-09T20:33:11.946Z,76.69
2023-12-09T20:35:43.521Z,76.47
2023-12-09T20:38:14.592Z,76.51
2023-12-09T20:40:45.922Z,76.41
2023-12-09T20:43:17.122Z,76.41
2023-12-09T20:45:48.955Z,76.46
2023-12-09T20:48:21.386Z,76.37
2023-12-09T20:50:52.497Z,76.32
2023-12-09T20:53:24.256Z,76.29
2023-12-09T20:55:55.050Z,76.45
2023-12-09T20:58:26.190Z,76.44
2023-12-09T21:01:02.644Z,76.35
2023-12-09T21:03:33.822Z,76.48
2023-12-09T21:06:04.977Z,76.54
2023-12-09T21:08:35.736Z,76.54
2023-12-09T21:11:10.046Z,76.46
2023-12-09T21:13:41.872Z,76.44
2023-12-09T21:16:12.783Z,76.48
2023-12-09T21:18:43.655Z,76.37
2023-12-09T21:21:15.150Z,76.41
2023-12-09T21:23:46.204Z,76.60
2023-12-09T21:26:17.341Z,76.39
2023-12-09T21:28:48.319Z,76.51
2023-12-09T21:31:19.267Z,76.42
2023-12-09T21:33:50.190Z,76.45
2023-12-09T21:36:21.256Z,76.45
2023-12-09T21:38:52.319Z,76.47
2023-12-09T21:41:24.755Z,76.50
2023-12-09T21:43:55.803Z,76.46
2023-12-09T21:46:27.490Z,76.20
2023-12-09T21:49:00.457Z,76.24
2023-12-09T21:51:31.768Z,76.23
2023-12-09T21:54:02.589Z,76.35
2023-12-09T21:56:33.510Z,76.17
2023-12-09T21:59:04.399Z,76.39
2023-12-09T22:01:36.810Z,76.48
2023-12-09T22:04:08.246Z,76.25
2023-12-09T22:06:39.517Z,76.15
2023-12-09T22:09:10.386Z,76.18
2023-12-09T22:11:42.868Z,76.27
2023-12-09T22:14:13.793Z,76.28
2023-12-09T22:16:44.773Z,76.31
2023-12-09T22:19:16.490Z,76.43
2023-12-09T22:21:48.112Z,76.43
2023-12-09T22:24:19.241Z,76.34
2023-12-09T22:26:50.035Z,76.25
2023-12-09T22:29:21.027Z,76.31
2023-12-09T22:31:52.452Z,76.36
2023-12-09T22:34:23.458Z,76.27
2023-12-09T22:36:54.528Z,76.26
2023-12-09T22:39:26.210Z,76.29
2023-12-09T22:41:57.072Z,76.28
2023-12-09T22:44:27.808Z,76.22
2023-12-09T22:46:58.711Z,76.45
2023-12-09T22:49:29.558Z,76.34
2023-12-09T22:52:03.394Z,76.44
2023-12-09T22:54:34.088Z,76.48
2023-12-09T22:57:09.949Z,76.26
2023-12-09T22:59:41.003Z,76.20
2023-12-09T23:02:11.898Z,76.21
2023-12-09T23:04:42.711Z,76.21
2023-12-09T23:07:13.543Z,76.18
2023-12-09T23:09:44.297Z,76.43
2023-12-09T23:12:15.247Z,76.49
2023-12-09T23:14:45.991Z,76.39
2023-12-09T23:17:16.799Z,76.29
2023-12-09T23:19:49.552Z,76.51
2023-12-09T23:22:20.366Z,76.69
2023-12-09T23:24:51.204Z,76.59
2023-12-09T23:27:22.422Z,76.60
2023-12-09T23:29:53.152Z,76.55
2023-12-09T23:32:24.025Z,76.64
2023-12-09T23:34:54.910Z,76.50
2023-12-09T23:37:25.781Z,76.35
2023-12-09T23:39:56.582Z,76.37
2023-12-09T23:42:27.640Z,76.36
2023-12-09T23:44:58.638Z,76.49
2023-12-09T23:47:29.502Z,76.49
2023-12-09T23:50:00.377Z,76.65
2023-12-09T23:52:31.250Z,76.44
2023-12-09T23:55:03.647Z,76.61
2023-12-09T23:57:34.465Z,76.46
